sensor_id;sensor_type;location;lat;lon;timestamp;P1;durP1;ratioP1;P2;durP2;ratioP2
50821;SDS011;36794;51.212;6.980;2023-12-20T00:01:03;14.70;;;4.50;;
50821;SDS011;36794;51.212;6.980;2023-12-20T00:03:29;12.37;;;4.83;;
50821;SDS011;36794;51.212;6.980;2023-12-20T00:05:55;15.23;;;4.87;;
50821;SDS011;36794;51.212;6.980;2023-12-20T00:08:21;17.03;;;4.80;;
50821;SDS011;36794;51.212;6.980;2023-12-20T00:10:47;16.50;;;4.57;;
50821;SDS011;36794;51.212;6.980;2023-12-20T00:13:13;14.23;;;4.47;;
50821;SDS011;36794;51.212;6.980;2023-12-20T00:15:39;12.33;;;4.47;;
50821;SDS011;36794;51.212;6.980;2023-12-20T00:18:05;15.83;;;4.60;;
50821;SDS011;36794;51.212;6.980;2023-12-20T00:20:30;14.90;;;4.30;;
50821;SDS011;36794;51.212;6.980;2023-12-20T00:22:57;14.80;;;4.47;;
50821;SDS011;36794;51.212;6.980;2023-12-20T00:25:23;16.87;;;4.90;;
50821;SDS011;36794;51.212;6.980;2023-12-20T00:27:49;25.23;;;4.47;;
50821;SDS011;36794;51.212;6.980;2023-12-20T00:30:15;19.17;;;5.50;;
50821;SDS011;36794;51.212;6.980;2023-12-20T00:32:41;18.20;;;5.20;;
50821;SDS011;36794;51.212;6.980;2023-12-20T00:35:15;19.27;;;5.27;;
50821;SDS011;36794;51.212;6.980;2023-12-20T00:37:41;19.87;;;5.53;;
50821;SDS011;36794;51.212;6.980;2023-12-20T00:40:08;18.97;;;6.07;;
50821;SDS011;36794;51.212;6.980;2023-12-20T00:42:34;17.37;;;5.30;;
50821;SDS011;36794;51.212;6.980;2023-12-20T00:45:03;18.67;;;5.60;;
50821;SDS011;36794;51.212;6.980;2023-12-20T00:47:30;21.10;;;5.80;;
50821;SDS011;36794;51.212;6.980;2023-12-20T00:49:56;22.53;;;6.37;;
50821;SDS011;36794;51.212;6.980;2023-12-20T00:52:22;23.43;;;5.97;;
50821;SDS011;36794;51.212;6.980;2023-12-20T00:54:48;20.67;;;5.97;;
50821;SDS011;36794;51.212;6.980;2023-12-20T00:57:14;18.80;;;5.80;;
50821;SDS011;36794;51.212;6.980;2023-12-20T00:59:40;24.27;;;6.20;;
50821;SDS011;36794;51.212;6.980;2023-12-20T01:02:06;21.90;;;6.03;;
50821;SDS011;36794;51.212;6.980;2023-12-20T01:04:33;19.77;;;6.50;;
50821;SDS011;36794;51.212;6.980;2023-12-20T01:06:59;26.77;;;6.93;;
50821;SDS011;36794;51.212;6.980;2023-12-20T01:09:25;27.07;;;7.17;;
50821;SDS011;36794;51.212;6.980;2023-12-20T01:11:54;31.00;;;7.00;;
50821;SDS011;36794;51.212;6.980;2023-12-20T01:14:20;22.23;;;6.90;;
50821;SDS011;36794;51.212;6.980;2023-12-20T01:16:45;24.27;;;7.00;;
50821;SDS011;36794;51.212;6.980;2023-12-20T01:19:12;23.13;;;7.93;;
50821;SDS011;36794;51.212;6.980;2023-12-20T01:21:39;25.27;;;7.60;;
50821;SDS011;36794;51.212;6.980;2023-12-20T01:24:05;31.33;;;8.30;;
50821;SDS011;36794;51.212;6.980;2023-12-20T01:26:31;27.77;;;8.60;;
50821;SDS011;36794;51.212;6.980;2023-12-20T01:28:57;28.43;;;9.43;;
50821;SDS011;36794;51.212;6.980;2023-12-20T01:31:23;34.17;;;10.83;;
50821;SDS011;36794;51.212;6.980;2023-12-20T01:33:49;31.10;;;11.57;;
50821;SDS011;36794;51.212;6.980;2023-12-20T01:36:15;45.50;;;14.17;;
50821;SDS011;36794;51.212;6.980;2023-12-20T01:38:41;37.27;;;15.03;;
50821;SDS011;36794;51.212;6.980;2023-12-20T01:41:07;40.00;;;15.57;;
50821;SDS011;36794;51.212;6.980;2023-12-20T01:43:33;43.60;;;17.00;;
50821;SDS011;36794;51.212;6.980;2023-12-20T01:45:58;44.27;;;17.40;;
50821;SDS011;36794;51.212;6.980;2023-12-20T01:48:25;49.90;;;17.87;;
50821;SDS011;36794;51.212;6.980;2023-12-20T01:50:51;55.93;;;19.50;;
50821;SDS011;36794;51.212;6.980;2023-12-20T01:53:18;47.87;;;19.17;;
50821;SDS011;36794;51.212;6.980;2023-12-20T01:55:45;44.23;;;18.30;;
50821;SDS011;36794;51.212;6.980;2023-12-20T01:58:11;47.37;;;19.20;;
50821;SDS011;36794;51.212;6.980;2023-12-20T02:00:37;50.17;;;18.13;;
50821;SDS011;36794;51.212;6.980;2023-12-20T02:03:04;47.73;;;17.97;;
50821;SDS011;36794;51.212;6.980;2023-12-20T02:05:30;39.40;;;16.67;;
50821;SDS011;36794;51.212;6.980;2023-12-20T02:07:56;43.43;;;17.20;;
50821;SDS011;36794;51.212;6.980;2023-12-20T02:10:23;43.23;;;15.43;;
50821;SDS011;36794;51.212;6.980;2023-12-20T02:12:49;34.90;;;15.57;;
50821;SDS011;36794;51.212;6.980;2023-12-20T02:15:15;36.77;;;14.27;;
50821;SDS011;36794;51.212;6.980;2023-12-20T02:17:41;35.47;;;14.00;;
50821;SDS011;36794;51.212;6.980;2023-12-20T02:20:08;34.43;;;13.43;;
50821;SDS011;36794;51.212;6.980;2023-12-20T02:22:34;30.27;;;12.70;;
50821;SDS011;36794;51.212;6.980;2023-12-20T02:25:00;32.47;;;12.20;;
50821;SDS011;36794;51.212;6.980;2023-12-20T02:27:26;35.70;;;12.40;;
50821;SDS011;36794;51.212;6.980;2023-12-20T02:29:53;38.80;;;11.40;;
50821;SDS011;36794;51.212;6.980;2023-12-20T02:32:19;31.13;;;11.87;;
50821;SDS011;36794;51.212;6.980;2023-12-20T02:34:46;42.73;;;12.33;;
50821;SDS011;36794;51.212;6.980;2023-12-20T02:37:12;34.53;;;12.33;;
50821;SDS011;36794;51.212;6.980;2023-12-20T02:39:38;35.33;;;10.90;;
50821;SDS011;36794;51.212;6.980;2023-12-20T02:42:04;40.00;;;11.97;;
50821;SDS011;36794;51.212;6.980;2023-12-20T02:44:30;33.60;;;11.10;;
50821;SDS011;36794;51.212;6.980;2023-12-20T02:46:56;38.13;;;11.77;;
50821;SDS011;36794;51.212;6.980;2023-12-20T02:49:22;35.30;;;11.80;;
50821;SDS011;36794;51.212;6.980;2023-12-20T02:51:48;29.73;;;12.27;;
50821;SDS011;36794;51.212;6.980;2023-12-20T02:54:14;33.93;;;11.93;;
50821;SDS011;36794;51.212;6.980;2023-12-20T02:56:40;26.43;;;10.57;;
50821;SDS011;36794;51.212;6.980;2023-12-20T02:59:06;32.80;;;11.30;;
50821;SDS011;36794;51.212;6.980;2023-12-20T03:01:33;32.17;;;11.30;;
50821;SDS011;36794;51.212;6.980;2023-12-20T03:03:59;32.40;;;10.60;;
50821;SDS011;36794;51.212;6.980;2023-12-20T03:06:26;36.20;;;10.30;;
50821;SDS011;36794;51.212;6.980;2023-12-20T03:08:51;29.53;;;11.10;;
50821;SDS011;36794;51.212;6.980;2023-12-20T03:11:17;25.40;;;9.17;;
50821;SDS011;36794;51.212;6.980;2023-12-20T03:13:43;34.63;;;9.07;;
50821;SDS011;36794;51.212;6.980;2023-12-20T03:16:13;39.07;;;8.60;;
50821;SDS011;36794;51.212;6.980;2023-12-20T03:18:41;30.63;;;8.20;;
50821;SDS011;36794;51.212;6.980;2023-12-20T03:21:07;24.57;;;7.73;;
50821;SDS011;36794;51.212;6.980;2023-12-20T03:23:33;28.67;;;7.23;;
50821;SDS011;36794;51.212;6.980;2023-12-20T03:25:59;25.60;;;7.37;;
50821;SDS011;36794;51.212;6.980;2023-12-20T03:28:26;30.17;;;7.33;;
50821;SDS011;36794;51.212;6.980;2023-12-20T03:30:52;30.10;;;7.20;;
50821;SDS011;36794;51.212;6.980;2023-12-20T03:33:18;25.57;;;5.63;;
50821;SDS011;36794;51.212;6.980;2023-12-20T03:35:44;25.93;;;6.27;;
50821;SDS011;36794;51.212;6.980;2023-12-20T03:38:10;26.17;;;6.57;;
50821;SDS011;36794;51.212;6.980;2023-12-20T03:40:36;25.07;;;6.37;;
50821;SDS011;36794;51.212;6.980;2023-12-20T03:43:02;33.33;;;7.30;;
50821;SDS011;36794;51.212;6.980;2023-12-20T03:45:27;25.03;;;6.43;;
50821;SDS011;36794;51.212;6.980;2023-12-20T03:47:53;27.83;;;6.67;;
50821;SDS011;36794;51.212;6.980;2023-12-20T03:50:24;23.00;;;6.50;;
50821;SDS011;36794;51.212;6.980;2023-12-20T03:52:50;19.23;;;6.00;;
50821;SDS011;36794;51.212;6.980;2023-12-20T03:55:16;23.23;;;5.67;;
50821;SDS011;36794;51.212;6.980;2023-12-20T03:57:42;19.27;;;5.67;;
50821;SDS011;36794;51.212;6.980;2023-12-20T04:00:08;29.00;;;5.53;;
50821;SDS011;36794;51.212;6.980;2023-12-20T04:02:36;24.70;;;5.13;;
50821;SDS011;36794;51.212;6.980;2023-12-20T04:05:02;20.50;;;4.83;;
50821;SDS011;36794;51.212;6.980;2023-12-20T04:07:28;31.37;;;5.10;;
50821;SDS011;36794;51.212;6.980;2023-12-20T04:09:54;29.57;;;5.43;;
50821;SDS011;36794;51.212;6.980;2023-12-20T04:12:20;29.60;;;5.03;;
50821;SDS011;36794;51.212;6.980;2023-12-20T04:14:46;29.77;;;4.87;;
50821;SDS011;36794;51.212;6.980;2023-12-20T04:17:13;21.70;;;4.13;;
50821;SDS011;36794;51.212;6.980;2023-12-20T04:19:40;22.20;;;4.70;;
50821;SDS011;36794;51.212;6.980;2023-12-20T04:22:06;21.07;;;4.77;;
50821;SDS011;36794;51.212;6.980;2023-12-20T04:24:32;25.67;;;5.13;;
50821;SDS011;36794;51.212;6.980;2023-12-20T04:26:58;22.93;;;5.47;;
50821;SDS011;36794;51.212;6.980;2023-12-20T04:29:24;28.97;;;4.90;;
50821;SDS011;36794;51.212;6.980;2023-12-20T04:31:50;33.10;;;5.07;;
50821;SDS011;36794;51.212;6.980;2023-12-20T04:34:16;21.23;;;4.47;;
50821;SDS011;36794;51.212;6.980;2023-12-20T04:36:42;28.70;;;5.67;;
50821;SDS011;36794;51.212;6.980;2023-12-20T04:39:08;20.50;;;4.20;;
50821;SDS011;36794;51.212;6.980;2023-12-20T04:41:34;25.07;;;5.60;;
50821;SDS011;36794;51.212;6.980;2023-12-20T04:44:00;23.30;;;4.80;;
50821;SDS011;36794;51.212;6.980;2023-12-20T04:46:27;21.40;;;4.83;;
50821;SDS011;36794;51.212;6.980;2023-12-20T04:48:53;18.67;;;5.40;;
50821;SDS011;36794;51.212;6.980;2023-12-20T04:51:19;22.33;;;4.87;;
50821;SDS011;36794;51.212;6.980;2023-12-20T04:53:45;21.10;;;5.33;;
50821;SDS011;36794;51.212;6.980;2023-12-20T04:56:11;21.87;;;5.47;;
50821;SDS011;36794;51.212;6.980;2023-12-20T04:58:37;33.60;;;6.03;;
50821;SDS011;36794;51.212;6.980;2023-12-20T05:01:03;25.80;;;5.23;;
50821;SDS011;36794;51.212;6.980;2023-12-20T05:03:29;22.93;;;5.90;;
50821;SDS011;36794;51.212;6.980;2023-12-20T05:05:55;23.17;;;5.70;;
50821;SDS011;36794;51.212;6.980;2023-12-20T05:08:21;23.77;;;6.20;;
50821;SDS011;36794;51.212;6.980;2023-12-20T05:10:47;28.80;;;6.07;;
50821;SDS011;36794;51.212;6.980;2023-12-20T05:13:13;26.77;;;6.20;;
50821;SDS011;36794;51.212;6.980;2023-12-20T05:15:39;30.67;;;6.73;;
50821;SDS011;36794;51.212;6.980;2023-12-20T05:18:05;20.23;;;6.90;;
50821;SDS011;36794;51.212;6.980;2023-12-20T05:20:31;27.23;;;6.90;;
50821;SDS011;36794;51.212;6.980;2023-12-20T05:22:57;33.20;;;6.53;;
50821;SDS011;36794;51.212;6.980;2023-12-20T05:25:23;27.13;;;7.00;;
50821;SDS011;36794;51.212;6.980;2023-12-20T05:27:49;28.47;;;6.07;;
50821;SDS011;36794;51.212;6.980;2023-12-20T05:30:15;27.10;;;6.83;;
50821;SDS011;36794;51.212;6.980;2023-12-20T05:32:41;26.40;;;6.73;;
50821;SDS011;36794;51.212;6.980;2023-12-20T05:35:07;22.97;;;5.23;;
50821;SDS011;36794;51.212;6.980;2023-12-20T05:37:33;30.67;;;5.87;;
50821;SDS011;36794;51.212;6.980;2023-12-20T05:39:59;29.73;;;7.60;;
50821;SDS011;36794;51.212;6.980;2023-12-20T05:42:25;36.17;;;6.47;;
50821;SDS011;36794;51.212;6.980;2023-12-20T05:44:51;18.37;;;6.37;;
50821;SDS011;36794;51.212;6.980;2023-12-20T05:47:16;39.40;;;6.50;;
50821;SDS011;36794;51.212;6.980;2023-12-20T05:49:43;19.77;;;5.60;;
50821;SDS011;36794;51.212;6.980;2023-12-20T05:52:09;28.13;;;5.50;;
50821;SDS011;36794;51.212;6.980;2023-12-20T05:54:35;28.00;;;5.37;;
50821;SDS011;36794;51.212;6.980;2023-12-20T05:57:01;23.57;;;6.13;;
50821;SDS011;36794;51.212;6.980;2023-12-20T05:59:27;26.97;;;5.97;;
50821;SDS011;36794;51.212;6.980;2023-12-20T06:01:53;28.87;;;6.80;;
50821;SDS011;36794;51.212;6.980;2023-12-20T06:04:19;28.33;;;5.87;;
50821;SDS011;36794;51.212;6.980;2023-12-20T06:06:45;24.63;;;5.57;;
50821;SDS011;36794;51.212;6.980;2023-12-20T06:09:11;28.83;;;6.07;;
50821;SDS011;36794;51.212;6.980;2023-12-20T06:11:37;33.27;;;5.87;;
50821;SDS011;36794;51.212;6.980;2023-12-20T06:14:03;25.50;;;6.00;;
50821;SDS011;36794;51.212;6.980;2023-12-20T06:16:29;25.33;;;5.40;;
50821;SDS011;36794;51.212;6.980;2023-12-20T06:18:55;22.33;;;5.90;;
50821;SDS011;36794;51.212;6.980;2023-12-20T06:21:21;25.00;;;5.47;;
50821;SDS011;36794;51.212;6.980;2023-12-20T06:23:47;17.10;;;5.50;;
50821;SDS011;36794;51.212;6.980;2023-12-20T06:26:13;34.17;;;5.93;;
50821;SDS011;36794;51.212;6.980;2023-12-20T06:28:39;28.70;;;5.20;;
50821;SDS011;36794;51.212;6.980;2023-12-20T06:31:05;23.50;;;7.00;;
50821;SDS011;36794;51.212;6.980;2023-12-20T06:33:31;26.53;;;5.60;;
50821;SDS011;36794;51.212;6.980;2023-12-20T06:35:57;25.37;;;6.43;;
50821;SDS011;36794;51.212;6.980;2023-12-20T06:38:23;26.97;;;6.43;;
50821;SDS011;36794;51.212;6.980;2023-12-20T06:40:49;29.27;;;6.33;;
50821;SDS011;36794;51.212;6.980;2023-12-20T06:43:15;21.87;;;5.97;;
50821;SDS011;36794;51.212;6.980;2023-12-20T06:45:41;31.13;;;6.40;;
50821;SDS011;36794;51.212;6.980;2023-12-20T06:48:07;35.33;;;6.10;;
50821;SDS011;36794;51.212;6.980;2023-12-20T06:50:33;28.30;;;6.57;;
50821;SDS011;36794;51.212;6.980;2023-12-20T06:52:59;32.40;;;6.00;;
50821;SDS011;36794;51.212;6.980;2023-12-20T06:55:31;30.23;;;6.20;;
50821;SDS011;36794;51.212;6.980;2023-12-20T06:57:57;25.53;;;6.23;;
50821;SDS011;36794;51.212;6.980;2023-12-20T07:00:23;31.70;;;6.50;;
50821;SDS011;36794;51.212;6.980;2023-12-20T07:02:49;35.67;;;6.37;;
50821;SDS011;36794;51.212;6.980;2023-12-20T07:05:18;22.53;;;6.57;;
50821;SDS011;36794;51.212;6.980;2023-12-20T07:07:45;29.73;;;6.10;;
50821;SDS011;36794;51.212;6.980;2023-12-20T07:10:12;29.67;;;6.50;;
50821;SDS011;36794;51.212;6.980;2023-12-20T07:12:37;26.37;;;6.33;;
50821;SDS011;36794;51.212;6.980;2023-12-20T07:15:04;26.00;;;6.37;;
50821;SDS011;36794;51.212;6.980;2023-12-20T07:17:32;27.07;;;6.13;;
50821;SDS011;36794;51.212;6.980;2023-12-20T07:19:58;28.53;;;6.40;;
50821;SDS011;36794;51.212;6.980;2023-12-20T07:22:28;26.83;;;6.17;;
50821;SDS011;36794;51.212;6.980;2023-12-20T07:24:54;24.77;;;6.50;;
50821;SDS011;36794;51.212;6.980;2023-12-20T07:27:20;22.77;;;6.87;;
50821;SDS011;36794;51.212;6.980;2023-12-20T07:29:46;22.97;;;6.03;;
50821;SDS011;36794;51.212;6.980;2023-12-20T07:32:12;22.63;;;5.43;;
50821;SDS011;36794;51.212;6.980;2023-12-20T07:34:38;27.60;;;5.63;;
50821;SDS011;36794;51.212;6.980;2023-12-20T07:37:04;31.60;;;6.33;;
50821;SDS011;36794;51.212;6.980;2023-12-20T07:39:30;32.60;;;6.20;;
50821;SDS011;36794;51.212;6.980;2023-12-20T07:41:56;27.77;;;7.13;;
50821;SDS011;36794;51.212;6.980;2023-12-20T07:44:21;20.97;;;6.20;;
50821;SDS011;36794;51.212;6.980;2023-12-20T07:46:48;27.90;;;6.50;;
50821;SDS011;36794;51.212;6.980;2023-12-20T07:49:14;24.80;;;6.03;;
50821;SDS011;36794;51.212;6.980;2023-12-20T07:51:40;25.77;;;5.93;;
50821;SDS011;36794;51.212;6.980;2023-12-20T07:54:08;30.03;;;5.73;;
50821;SDS011;36794;51.212;6.980;2023-12-20T07:56:34;28.33;;;6.07;;
50821;SDS011;36794;51.212;6.980;2023-12-20T07:59:00;30.87;;;5.50;;
50821;SDS011;36794;51.212;6.980;2023-12-20T08:01:26;22.87;;;6.07;;
50821;SDS011;36794;51.212;6.980;2023-12-20T08:03:52;16.70;;;5.20;;
50821;SDS011;36794;51.212;6.980;2023-12-20T08:06:18;23.43;;;5.70;;
50821;SDS011;36794;51.212;6.980;2023-12-20T08:08:44;22.20;;;5.60;;
50821;SDS011;36794;51.212;6.980;2023-12-20T08:11:10;17.50;;;5.70;;
50821;SDS011;36794;51.212;6.980;2023-12-20T08:13:36;20.10;;;5.73;;
50821;SDS011;36794;51.212;6.980;2023-12-20T08:16:02;27.50;;;7.20;;
50821;SDS011;36794;51.212;6.980;2023-12-20T08:18:29;30.53;;;7.43;;
50821;SDS011;36794;51.212;6.980;2023-12-20T08:20:55;28.53;;;5.87;;
50821;SDS011;36794;51.212;6.980;2023-12-20T08:23:21;18.23;;;5.23;;
50821;SDS011;36794;51.212;6.980;2023-12-20T08:25:47;20.20;;;5.97;;
50821;SDS011;36794;51.212;6.980;2023-12-20T08:28:13;21.50;;;5.73;;
50821;SDS011;36794;51.212;6.980;2023-12-20T08:30:39;21.83;;;5.63;;
50821;SDS011;36794;51.212;6.980;2023-12-20T08:33:05;25.73;;;6.53;;
50821;SDS011;36794;51.212;6.980;2023-12-20T08:35:36;22.63;;;6.00;;
50821;SDS011;36794;51.212;6.980;2023-12-20T08:38:02;26.07;;;5.87;;
50821;SDS011;36794;51.212;6.980;2023-12-20T08:40:29;23.47;;;5.50;;
50821;SDS011;36794;51.212;6.980;2023-12-20T08:42:55;26.33;;;6.47;;
50821;SDS011;36794;51.212;6.980;2023-12-20T08:45:21;23.40;;;5.93;;
50821;SDS011;36794;51.212;6.980;2023-12-20T08:47:47;27.77;;;5.50;;
50821;SDS011;36794;51.212;6.980;2023-12-20T08:50:13;26.77;;;5.87;;
50821;SDS011;36794;51.212;6.980;2023-12-20T08:52:40;28.47;;;5.43;;
50821;SDS011;36794;51.212;6.980;2023-12-20T08:55:07;30.23;;;5.83;;
50821;SDS011;36794;51.212;6.980;2023-12-20T08:57:33;28.27;;;5.63;;
50821;SDS011;36794;51.212;6.980;2023-12-20T08:59:59;21.50;;;4.97;;
50821;SDS011;36794;51.212;6.980;2023-12-20T09:02:25;22.23;;;5.13;;
50821;SDS011;36794;51.212;6.980;2023-12-20T09:04:51;19.70;;;5.70;;
50821;SDS011;36794;51.212;6.980;2023-12-20T09:07:23;19.37;;;5.00;;
50821;SDS011;36794;51.212;6.980;2023-12-20T09:09:49;26.60;;;5.03;;
50821;SDS011;36794;51.212;6.980;2023-12-20T09:12:16;31.63;;;5.77;;
50821;SDS011;36794;51.212;6.980;2023-12-20T09:14:43;19.60;;;4.53;;
50821;SDS011;36794;51.212;6.980;2023-12-20T09:17:09;24.47;;;5.00;;
50821;SDS011;36794;51.212;6.980;2023-12-20T09:19:36;23.37;;;4.13;;
50821;SDS011;36794;51.212;6.980;2023-12-20T09:22:02;29.90;;;5.67;;
50821;SDS011;36794;51.212;6.980;2023-12-20T09:24:29;22.53;;;5.17;;
50821;SDS011;36794;51.212;6.980;2023-12-20T09:26:55;28.10;;;4.60;;
50821;SDS011;36794;51.212;6.980;2023-12-20T09:29:21;20.37;;;4.33;;
50821;SDS011;36794;51.212;6.980;2023-12-20T09:31:47;19.37;;;4.37;;
50821;SDS011;36794;51.212;6.980;2023-12-20T09:34:15;20.07;;;4.60;;
50821;SDS011;36794;51.212;6.980;2023-12-20T09:36:42;23.47;;;4.13;;
50821;SDS011;36794;51.212;6.980;2023-12-20T09:39:14;25.50;;;5.43;;
50821;SDS011;36794;51.212;6.980;2023-12-20T09:41:43;22.87;;;4.93;;
50821;SDS011;36794;51.212;6.980;2023-12-20T09:44:15;29.83;;;5.37;;
50821;SDS011;36794;51.212;6.980;2023-12-20T09:46:43;17.03;;;4.20;;
50821;SDS011;36794;51.212;6.980;2023-12-20T09:49:10;19.67;;;4.27;;
50821;SDS011;36794;51.212;6.980;2023-12-20T09:51:36;25.53;;;4.97;;
50821;SDS011;36794;51.212;6.980;2023-12-20T09:54:03;23.97;;;4.23;;
50821;SDS011;36794;51.212;6.980;2023-12-20T09:56:29;21.73;;;3.83;;
50821;SDS011;36794;51.212;6.980;2023-12-20T09:58:55;23.47;;;3.90;;
50821;SDS011;36794;51.212;6.980;2023-12-20T10:01:22;17.73;;;3.23;;
50821;SDS011;36794;51.212;6.980;2023-12-20T10:03:50;22.70;;;3.33;;
50821;SDS011;36794;51.212;6.980;2023-12-20T10:06:16;18.63;;;3.50;;
50821;SDS011;36794;51.212;6.980;2023-12-20T10:08:42;19.90;;;4.20;;
50821;SDS011;36794;51.212;6.980;2023-12-20T10:11:08;17.70;;;3.50;;
50821;SDS011;36794;51.212;6.980;2023-12-20T10:13:38;14.50;;;3.20;;
50821;SDS011;36794;51.212;6.980;2023-12-20T10:16:05;25.30;;;4.13;;
50821;SDS011;36794;51.212;6.980;2023-12-20T10:18:32;23.47;;;3.90;;
50821;SDS011;36794;51.212;6.980;2023-12-20T10:20:58;16.17;;;3.90;;
50821;SDS011;36794;51.212;6.980;2023-12-20T10:23:24;19.37;;;2.90;;
50821;SDS011;36794;51.212;6.980;2023-12-20T10:25:56;25.97;;;4.53;;
50821;SDS011;36794;51.212;6.980;2023-12-20T10:28:23;25.03;;;4.33;;
50821;SDS011;36794;51.212;6.980;2023-12-20T10:30:52;17.93;;;3.03;;
50821;SDS011;36794;51.212;6.980;2023-12-20T10:33:25;16.30;;;3.23;;
50821;SDS011;36794;51.212;6.980;2023-12-20T10:35:51;27.50;;;3.63;;
50821;SDS011;36794;51.212;6.980;2023-12-20T10:38:18;20.57;;;3.40;;
50821;SDS011;36794;51.212;6.980;2023-12-20T10:40:45;18.97;;;4.37;;
50821;SDS011;36794;51.212;6.980;2023-12-20T10:43:11;17.30;;;3.47;;
50821;SDS011;36794;51.212;6.980;2023-12-20T10:45:37;19.27;;;4.10;;
50821;SDS011;36794;51.212;6.980;2023-12-20T10:48:03;23.47;;;3.40;;
50821;SDS011;36794;51.212;6.980;2023-12-20T10:50:30;19.47;;;3.87;;
50821;SDS011;36794;51.212;6.980;2023-12-20T10:52:57;19.30;;;3.87;;
50821;SDS011;36794;51.212;6.980;2023-12-20T10:55:23;19.30;;;3.47;;
50821;SDS011;36794;51.212;6.980;2023-12-20T10:57:50;21.40;;;3.27;;
50821;SDS011;36794;51.212;6.980;2023-12-20T11:00:17;22.57;;;4.43;;
50821;SDS011;36794;51.212;6.980;2023-12-20T11:02:44;19.80;;;4.40;;
50821;SDS011;36794;51.212;6.980;2023-12-20T11:05:14;16.30;;;3.90;;
50821;SDS011;36794;51.212;6.980;2023-12-20T11:07:47;22.10;;;4.00;;
50821;SDS011;36794;51.212;6.980;2023-12-20T11:10:18;21.03;;;3.57;;
50821;SDS011;36794;51.212;6.980;2023-12-20T11:15:11;23.17;;;4.53;;
50821;SDS011;36794;51.212;6.980;2023-12-20T11:17:38;17.17;;;3.50;;
50821;SDS011;36794;51.212;6.980;2023-12-20T11:20:06;21.00;;;3.60;;
50821;SDS011;36794;51.212;6.980;2023-12-20T11:22:33;15.23;;;3.97;;
50821;SDS011;36794;51.212;6.980;2023-12-20T11:25:04;16.73;;;3.13;;
50821;SDS011;36794;51.212;6.980;2023-12-20T11:27:30;20.77;;;3.90;;
50821;SDS011;36794;51.212;6.980;2023-12-20T11:29:57;16.37;;;3.30;;
50821;SDS011;36794;51.212;6.980;2023-12-20T11:34:58;15.70;;;3.63;;
50821;SDS011;36794;51.212;6.980;2023-12-20T11:37:31;21.80;;;3.60;;
50821;SDS011;36794;51.212;6.980;2023-12-20T11:40:16;17.70;;;2.97;;
50821;SDS011;36794;51.212;6.980;2023-12-20T11:42:43;20.65;;;3.50;;
50821;SDS011;36794;51.212;6.980;2023-12-20T11:45:14;21.60;;;4.07;;
50821;SDS011;36794;51.212;6.980;2023-12-20T11:47:44;18.17;;;3.40;;
50821;SDS011;36794;51.212;6.980;2023-12-20T11:50:11;13.43;;;4.40;;
50821;SDS011;36794;51.212;6.980;2023-12-20T11:52:37;22.20;;;4.43;;
50821;SDS011;36794;51.212;6.980;2023-12-20T11:55:03;15.53;;;3.10;;
50821;SDS011;36794;51.212;6.980;2023-12-20T11:57:29;23.50;;;4.27;;
50821;SDS011;36794;51.212;6.980;2023-12-20T11:59:55;18.63;;;3.50;;
50821;SDS011;36794;51.212;6.980;2023-12-20T12:02:22;25.13;;;3.13;;
50821;SDS011;36794;51.212;6.980;2023-12-20T12:04:49;16.60;;;3.20;;
50821;SDS011;36794;51.212;6.980;2023-12-20T12:07:18;22.40;;;4.63;;
50821;SDS011;36794;51.212;6.980;2023-12-20T12:09:45;17.10;;;4.47;;
50821;SDS011;36794;51.212;6.980;2023-12-20T12:12:11;18.57;;;3.37;;
50821;SDS011;36794;51.212;6.980;2023-12-20T12:14:38;17.20;;;5.13;;
50821;SDS011;36794;51.212;6.980;2023-12-20T12:17:09;15.63;;;3.00;;
50821;SDS011;36794;51.212;6.980;2023-12-20T12:19:36;17.80;;;3.23;;
50821;SDS011;36794;51.212;6.980;2023-12-20T12:22:06;26.03;;;3.97;;
50821;SDS011;36794;51.212;6.980;2023-12-20T12:24:33;16.97;;;3.47;;
50821;SDS011;36794;51.212;6.980;2023-12-20T12:26:59;17.43;;;2.97;;
50821;SDS011;36794;51.212;6.980;2023-12-20T12:29:25;18.33;;;4.30;;
50821;SDS011;36794;51.212;6.980;2023-12-20T12:31:51;15.50;;;3.20;;
50821;SDS011;36794;51.212;6.980;2023-12-20T12:34:17;24.27;;;3.43;;
50821;SDS011;36794;51.212;6.980;2023-12-20T12:36:43;22.17;;;3.97;;
50821;SDS011;36794;51.212;6.980;2023-12-20T12:39:14;17.23;;;3.60;;
50821;SDS011;36794;51.212;6.980;2023-12-20T12:41:43;18.77;;;4.23;;
50821;SDS011;36794;51.212;6.980;2023-12-20T12:44:18;24.83;;;5.13;;
50821;SDS011;36794;51.212;6.980;2023-12-20T12:46:53;19.00;;;4.10;;
50821;SDS011;36794;51.212;6.980;2023-12-20T12:49:19;12.97;;;3.50;;
50821;SDS011;36794;51.212;6.980;2023-12-20T12:51:48;19.33;;;3.87;;
50821;SDS011;36794;51.212;6.980;2023-12-20T12:54:15;15.37;;;3.70;;
50821;SDS011;36794;51.212;6.980;2023-12-20T12:56:42;21.83;;;3.83;;
50821;SDS011;36794;51.212;6.980;2023-12-20T12:59:08;17.00;;;3.67;;
50821;SDS011;36794;51.212;6.980;2023-12-20T13:01:34;18.40;;;4.30;;
50821;SDS011;36794;51.212;6.980;2023-12-20T13:04:00;17.53;;;4.63;;
50821;SDS011;36794;51.212;6.980;2023-12-20T13:06:28;16.40;;;4.20;;
50821;SDS011;36794;51.212;6.980;2023-12-20T13:08:57;17.63;;;3.93;;
50821;SDS011;36794;51.212;6.980;2023-12-20T13:11:23;18.47;;;4.10;;
50821;SDS011;36794;51.212;6.980;2023-12-20T13:13:50;21.20;;;5.80;;
50821;SDS011;36794;51.212;6.980;2023-12-20T13:16:16;17.07;;;5.40;;
50821;SDS011;36794;51.212;6.980;2023-12-20T13:18:42;15.37;;;4.27;;
50821;SDS011;36794;51.212;6.980;2023-12-20T13:21:10;18.07;;;5.97;;
50821;SDS011;36794;51.212;6.980;2023-12-20T13:23:36;15.03;;;4.63;;
50821;SDS011;36794;51.212;6.980;2023-12-20T13:26:03;11.80;;;4.43;;
50821;SDS011;36794;51.212;6.980;2023-12-20T13:28:29;21.47;;;5.90;;
50821;SDS011;36794;51.212;6.980;2023-12-20T13:30:55;26.77;;;5.83;;
50821;SDS011;36794;51.212;6.980;2023-12-20T13:33:21;20.10;;;5.67;;
50821;SDS011;36794;51.212;6.980;2023-12-20T13:35:46;17.90;;;4.73;;
50821;SDS011;36794;51.212;6.980;2023-12-20T13:38:13;25.50;;;6.07;;
50821;SDS011;36794;51.212;6.980;2023-12-20T13:40:39;21.67;;;5.87;;
50821;SDS011;36794;51.212;6.980;2023-12-20T13:43:05;19.50;;;5.63;;
50821;SDS011;36794;51.212;6.980;2023-12-20T13:45:31;22.00;;;6.03;;
50821;SDS011;36794;51.212;6.980;2023-12-20T13:47:57;20.73;;;6.37;;
50821;SDS011;36794;51.212;6.980;2023-12-20T13:50:23;20.40;;;6.00;;
50821;SDS011;36794;51.212;6.980;2023-12-20T13:52:49;25.03;;;7.27;;
50821;SDS011;36794;51.212;6.980;2023-12-20T13:55:15;25.30;;;6.17;;
50821;SDS011;36794;51.212;6.980;2023-12-20T13:57:41;20.30;;;6.60;;
50821;SDS011;36794;51.212;6.980;2023-12-20T14:00:07;20.37;;;6.50;;
50821;SDS011;36794;51.212;6.980;2023-12-20T14:02:39;21.50;;;6.23;;
50821;SDS011;36794;51.212;6.980;2023-12-20T14:05:05;28.10;;;7.43;;
50821;SDS011;36794;51.212;6.980;2023-12-20T14:07:32;25.60;;;6.80;;
50821;SDS011;36794;51.212;6.980;2023-12-20T14:09:58;21.23;;;7.47;;
50821;SDS011;36794;51.212;6.980;2023-12-20T14:12:25;24.53;;;7.17;;
50821;SDS011;36794;51.212;6.980;2023-12-20T14:14:50;29.43;;;7.20;;
50821;SDS011;36794;51.212;6.980;2023-12-20T14:17:17;18.87;;;6.83;;
50821;SDS011;36794;51.212;6.980;2023-12-20T14:19:43;21.40;;;7.37;;
50821;SDS011;36794;51.212;6.980;2023-12-20T14:22:09;26.67;;;7.43;;
50821;SDS011;36794;51.212;6.980;2023-12-20T14:24:35;21.60;;;7.27;;
50821;SDS011;36794;51.212;6.980;2023-12-20T14:27:01;22.43;;;7.00;;
50821;SDS011;36794;51.212;6.980;2023-12-20T14:29:27;20.37;;;7.20;;
50821;SDS011;36794;51.212;6.980;2023-12-20T14:31:53;25.87;;;7.50;;
50821;SDS011;36794;51.212;6.980;2023-12-20T14:34:19;20.47;;;6.70;;